MSC Luisa — H9XU — position and weather

sailwx.info

Track history (hours):
 
Tides and Currents Weather Stations Pressure Air Temp Water Temp Dewpoint Dewpoint Depression Visibility Wind Speed Wind Dir Waves Ship Positions

MSC Luisa

Last reported at 2015-Jan-23 22:33 UTC. Time now 2015-Jan-28 01:18 UTC.
Position N 26°04' W 079°20'.

Length 300 m; draft 11.6 m.

Type: Ship. MMSI: 355308000.

Date/timePositionNaut miles runAvg speedWind from/ knotsBaromVisibWave heightAir tempDewpointWater temp
2015-Jan-23 22:33N 26°04' W 079°20'2323.1
2015-Jan-23 21:33N 25°45' W 079°34'60715.9
2015-Jan-22 07:21N 29°56' W 089°59'6 7.6
2015-Jan-22 06:33N 29°55' W 090°06'0 0.1
2015-Jan-22 02:12N 29°55' W 090°07'0 0.0
2015-Jan-21 23:10N 29°55' W 090°07'0 0.0
2015-Jan-21 22:40N 29°55' W 090°07'0 0.0
2015-Jan-21 22:16N 29°55' W 090°07'0 0.0
2015-Jan-21 14:28N 29°55' W 090°07'0 0.0
2015-Jan-21 09:04N 29°55' W 090°07'3 3.5
2015-Jan-21 08:11N 29°56' W 090°03'252 8.5
2015-Jan-20 02:33N 29°30' W 094°52'10 9.7
2015-Jan-20 01:33N 29°37' W 094°59'1 0.6
2015-Jan-20 00:33N 29°37' W 095°00'0 0.0
2015-Jan-19 23:30N 29°37' W 095°00'0 0.0
2015-Jan-19 22:32N 29°37' W 095°00'0 0.0
2015-Jan-19 21:32N 29°37' W 095°00'0 0.0
2015-Jan-19 20:28N 29°37' W 095°00'0 0.0
2015-Jan-19 19:28N 29°37' W 095°00'0 0.0
2015-Jan-19 18:33N 29°37' W 095°00'0 0.0
2015-Jan-19 17:33N 29°37' W 095°00'0 0.0
2015-Jan-19 16:33N 29°37' W 095°00'0 0.0
2015-Jan-19 15:29N 29°37' W 095°00'0 0.0
2015-Jan-19 14:32N 29°37' W 095°00'0 0.0
2015-Jan-19 13:31N 29°37' W 095°00'0 0.0
2015-Jan-19 12:31N 29°37' W 095°00'0 0.0
2015-Jan-19 11:33N 29°37' W 095°00'0 0.0
2015-Jan-19 10:33N 29°37' W 095°00'0 0.0
2015-Jan-19 09:29N 29°37' W 095°00'0 0.0
2015-Jan-19 08:32N 29°37' W 095°00'0 0.0
2015-Jan-19 07:29N 29°37' W 095°00'0 0.0
2015-Jan-19 06:32N 29°37' W 095°00'0 0.0
2015-Jan-19 05:32N 29°37' W 095°00'0 0.0
2015-Jan-19 04:32N 29°37' W 095°00'0 0.0
2015-Jan-19 03:28N 29°37' W 095°00'0 0.0
2015-Jan-19 02:31N 29°37' W 095°00'0 0.0
2015-Jan-19 01:33N 29°37' W 095°00'0 0.0
2015-Jan-19 00:33N 29°37' W 095°00'0 0.0
2015-Jan-18 23:26N 29°37' W 095°00'1 1.2
2015-Jan-18 22:33N 29°37' W 095°01'6 5.5
2015-Jan-18 21:33N 29°34' W 094°55'1313.0
2015-Jan-18 20:33N 29°23' W 094°48'  
2015-Jan-15 11:30N 19°46' W 096°11'1717.6
2015-Jan-15 10:33N 19°31' W 096°03'1716.9
2015-Jan-15 09:33N 19°15' W 095°58'10 9.8
2015-Jan-15 08:33N 19°12' W 096°08'0 0.4
2015-Jan-15 07:33N 19°13' W 096°08'0 0.0
2015-Jan-15 06:29N 19°13' W 096°08'0 0.0
2015-Jan-15 05:26N 19°13' W 096°08'0 0.0
2015-Jan-15 04:29N 19°13' W 096°08'0 0.0
2015-Jan-15 03:28N 19°13' W 096°08'0 0.0
2015-Jan-15 02:31N 19°13' W 096°08'0 0.0
2015-Jan-15 01:33N 19°13' W 096°08'0 0.0
2015-Jan-15 00:33N 19°13' W 096°08'0 0.0
2015-Jan-14 23:33N 19°13' W 096°08'0 0.0
2015-Jan-14 22:29N 19°13' W 096°08'0 0.0
2015-Jan-14 21:23N 19°13' W 096°08'0 0.0
2015-Jan-14 20:31N 19°13' W 096°08'0 0.0
2015-Jan-14 19:31N 19°13' W 096°08'0 0.0
2015-Jan-14 18:33N 19°13' W 096°08'0 0.0
2015-Jan-14 17:24N 19°13' W 096°08'0 0.0
2015-Jan-14 16:29N 19°13' W 096°08'0 0.3
2015-Jan-14 15:33N 19°13' W 096°08'10 9.9
2015-Jan-14 14:33N 19°14' W 095°58'6 6.2
2015-Jan-14 13:34N 19°18' W 095°53'3 3.4
2015-Jan-14 12:33N 19°16' W 095°55'2 2.5
2015-Jan-14 11:34N 19°18' W 095°56'3 3.4
2015-Jan-14 10:33N 19°17' W 095°52'3 3.0
2015-Jan-14 09:32N 19°17' W 095°49'3 3.0
2015-Jan-14 08:33N 19°19' W 095°51'5 4.9
2015-Jan-14 07:33N 19°19' W 095°56'4 3.6
2015-Jan-14 06:31N 19°16' W 095°54'5 5.0
2015-Jan-14 05:32N 19°16' W 095°49'8 7.2
2015-Jan-14 04:29N 19°18' W 095°41'  
Track history (hours):
 
Tides and Currents Weather Stations Pressure Air Temp Water Temp Dewpoint Dewpoint Depression Visibility Wind Speed Wind Dir Waves Ship Positions

MSC Luisa

Last reported at 2015-Jan-23 22:33 UTC. Time now 2015-Jan-28 01:18 UTC.
Position N 26°04' W 079°20'.

Length 300 m; draft 11.6 m.

Type: Ship. MMSI: 355308000.

Date/timePositionNaut miles runAvg speedWind from/ knotsBaromVisibWave heightAir tempDewpointWater temp
2015-Jan-23 22:33N 26°04' W 079°20'2323.1
2015-Jan-23 21:33N 25°45' W 079°34'60715.9
2015-Jan-22 07:21N 29°56' W 089°59'6 7.6
2015-Jan-22 06:33N 29°55' W 090°06'0 0.1
2015-Jan-22 02:12N 29°55' W 090°07'0 0.0
2015-Jan-21 23:10N 29°55' W 090°07'0 0.0
2015-Jan-21 22:40N 29°55' W 090°07'0 0.0
2015-Jan-21 22:16N 29°55' W 090°07'0 0.0
2015-Jan-21 14:28N 29°55' W 090°07'0 0.0
2015-Jan-21 09:04N 29°55' W 090°07'3 3.5
2015-Jan-21 08:11N 29°56' W 090°03'252 8.5
2015-Jan-20 02:33N 29°30' W 094°52'10 9.7
2015-Jan-20 01:33N 29°37' W 094°59'1 0.6
2015-Jan-20 00:33N 29°37' W 095°00'0 0.0
2015-Jan-19 23:30N 29°37' W 095°00'0 0.0
2015-Jan-19 22:32N 29°37' W 095°00'0 0.0
2015-Jan-19 21:32N 29°37' W 095°00'0 0.0
2015-Jan-19 20:28N 29°37' W 095°00'0 0.0
2015-Jan-19 19:28N 29°37' W 095°00'0 0.0
2015-Jan-19 18:33N 29°37' W 095°00'0 0.0
2015-Jan-19 17:33N 29°37' W 095°00'0 0.0
2015-Jan-19 16:33N 29°37' W 095°00'0 0.0
2015-Jan-19 15:29N 29°37' W 095°00'0 0.0
2015-Jan-19 14:32N 29°37' W 095°00'0 0.0
2015-Jan-19 13:31N 29°37' W 095°00'0 0.0
2015-Jan-19 12:31N 29°37' W 095°00'0 0.0
2015-Jan-19 11:33N 29°37' W 095°00'0 0.0
2015-Jan-19 10:33N 29°37' W 095°00'0 0.0
2015-Jan-19 09:29N 29°37' W 095°00'0 0.0
2015-Jan-19 08:32N 29°37' W 095°00'0 0.0
2015-Jan-19 07:29N 29°37' W 095°00'0 0.0
2015-Jan-19 06:32N 29°37' W 095°00'0 0.0
2015-Jan-19 05:32N 29°37' W 095°00'0 0.0
2015-Jan-19 04:32N 29°37' W 095°00'0 0.0
2015-Jan-19 03:28N 29°37' W 095°00'0 0.0
2015-Jan-19 02:31N 29°37' W 095°00'0 0.0
2015-Jan-19 01:33N 29°37' W 095°00'0 0.0
2015-Jan-19 00:33N 29°37' W 095°00'0 0.0
2015-Jan-18 23:26N 29°37' W 095°00'1 1.2
2015-Jan-18 22:33N 29°37' W 095°01'6 5.5
2015-Jan-18 21:33N 29°34' W 094°55'1313.0
2015-Jan-18 20:33N 29°23' W 094°48'  
2015-Jan-15 11:30N 19°46' W 096°11'1717.6
2015-Jan-15 10:33N 19°31' W 096°03'1716.9
2015-Jan-15 09:33N 19°15' W 095°58'10 9.8
2015-Jan-15 08:33N 19°12' W 096°08'0 0.4
2015-Jan-15 07:33N 19°13' W 096°08'0 0.0
2015-Jan-15 06:29N 19°13' W 096°08'0 0.0
2015-Jan-15 05:26N 19°13' W 096°08'0 0.0
2015-Jan-15 04:29N 19°13' W 096°08'0 0.0
2015-Jan-15 03:28N 19°13' W 096°08'0 0.0
2015-Jan-15 02:31N 19°13' W 096°08'0 0.0
2015-Jan-15 01:33N 19°13' W 096°08'0 0.0
2015-Jan-15 00:33N 19°13' W 096°08'0 0.0
2015-Jan-14 23:33N 19°13' W 096°08'0 0.0
2015-Jan-14 22:29N 19°13' W 096°08'0 0.0
2015-Jan-14 21:23N 19°13' W 096°08'0 0.0
2015-Jan-14 20:31N 19°13' W 096°08'0 0.0
2015-Jan-14 19:31N 19°13' W 096°08'0 0.0
2015-Jan-14 18:33N 19°13' W 096°08'0 0.0
2015-Jan-14 17:24N 19°13' W 096°08'0 0.0
2015-Jan-14 16:29N 19°13' W 096°08'0 0.3
2015-Jan-14 15:33N 19°13' W 096°08'10 9.9
2015-Jan-14 14:33N 19°14' W 095°58'6 6.2
2015-Jan-14 13:34N 19°18' W 095°53'3 3.4
2015-Jan-14 12:33N 19°16' W 095°55'2 2.5
2015-Jan-14 11:34N 19°18' W 095°56'3 3.4
2015-Jan-14 10:33N 19°17' W 095°52'3 3.0
2015-Jan-14 09:32N 19°17' W 095°49'3 3.0
2015-Jan-14 08:33N 19°19' W 095°51'5 4.9
2015-Jan-14 07:33N 19°19' W 095°56'4 3.6
2015-Jan-14 06:31N 19°16' W 095°54'5 5.0
2015-Jan-14 05:32N 19°16' W 095°49'8 7.2
2015-Jan-14 04:29N 19°18' W 095°41'  

Dump ship's entire track history